Time;durP1;ratioP1;P1;durP2;ratioP2;P2;SDS_P1;SDS_P2;PMS_P1;PMS_P2;Temp;Humidity;BMP_temperature;BMP_pressure;BME280_temperature;BME280_humidity;BME280_pressure;Samples;Min_cycle;Max_cycle;Signal;HPM_P1;HPM_P2
2021/09/19 00:00:05;;;;;;;1999.90;999.90;;;;;;;13.88;100.00;95664.38;5111468;28;20191;-71
2021/09/19 00:02:33;;;;;;;1999.90;999.90;;;;;;;13.96;100.00;95673.25;5105911;28;20203;-72
2021/09/19 00:05:00;;;;;;;1999.90;999.90;;;;;;;14.06;100.00;95675.56;5111502;28;20284;-72
2021/09/19 00:07:27;;;;;;;1999.90;999.90;;;;;;;14.06;100.00;95670.31;5111450;28;20195;-72
2021/09/19 00:09:55;;;;;;;1999.90;999.90;;;;;;;14.07;100.00;95662.19;5111636;28;20710;-71
2021/09/19 00:12:22;;;;;;;1999.90;999.90;;;;;;;14.17;100.00;95661.84;5111379;28;20226;-71
2021/09/19 00:14:49;;;;;;;1999.90;999.90;;;;;;;14.19;100.00;95664.16;5111738;27;20583;-72
2021/09/19 00:17:18;;;;;;;1999.90;999.90;;;;;;;14.16;100.00;95662.16;5111551;28;20210;-72
2021/09/19 00:19:46;;;;;;;1999.90;999.90;;;;;;;14.08;100.00;95652.50;5109548;27;20249;-71
2021/09/19 00:22:13;;;;;;;1999.90;999.90;;;;;;;14.12;100.00;95656.03;5091861;28;20198;-71
2021/09/19 00:24:40;;;;;;;1999.90;999.90;;;;;;;14.11;100.00;95654.47;5090887;28;20200;-71
2021/09/19 00:27:08;;;;;;;1999.90;999.90;;;;;;;14.09;100.00;95656.66;5091419;28;20191;-71
2021/09/19 00:29:35;;;;;;;1999.90;999.90;;;;;;;14.11;100.00;95651.88;5091271;28;20685;-70
2021/09/19 00:32:03;;;;;;;1999.90;999.90;;;;;;;14.16;100.00;95654.31;5090657;28;20196;-70
2021/09/19 00:34:32;;;;;;;1999.90;999.90;;;;;;;14.08;100.00;95650.66;5091376;28;20203;-73
2021/09/19 00:36:59;;;;;;;1999.90;999.90;;;;;;;14.07;100.00;95648.34;5091473;28;20200;-72
2021/09/19 00:39:26;;;;;;;1999.90;999.90;;;;;;;14.09;100.00;95631.28;5091602;28;20206;-71
2021/09/19 00:41:54;;;;;;;1999.90;999.90;;;;;;;14.04;100.00;95635.91;5091711;28;20203;-72
2021/09/19 00:44:26;;;;;;;1999.90;999.90;;;;;;;14.05;100.00;95632.19;5090612;28;20683;-72
2021/09/19 00:46:53;;;;;;;1999.90;999.90;;;;;;;14.03;100.00;95619.47;5090428;28;20186;-73
2021/09/19 00:49:21;;;;;;;1999.90;999.90;;;;;;;13.97;100.00;95620.69;5090297;28;20579;-71
2021/09/19 00:51:50;;;;;;;1999.90;999.90;;;;;;;14.02;100.00;95619.75;5090411;28;20301;-71
2021/09/19 00:54:18;;;;;;;1999.90;999.90;;;;;;;13.98;100.00;95621.47;5090325;28;20581;-72
2021/09/19 00:56:47;;;;;;;1999.90;999.90;;;;;;;13.91;100.00;95615.94;5089902;28;20705;-71
2021/09/19 00:59:14;;;;;;;1999.90;999.90;;;;;;;13.93;100.00;95619.03;5090480;28;20668;-72
2021/09/19 01:01:42;;;;;;;1999.90;999.90;;;;;;;13.99;100.00;95617.78;5090201;28;20238;-71
2021/09/19 01:04:10;;;;;;;1999.90;999.90;;;;;;;13.98;100.00;95618.84;5090521;28;20199;-71
2021/09/19 01:06:38;;;;;;;1999.90;999.90;;;;;;;13.98;100.00;95624.09;5090441;28;20202;-71
2021/09/19 01:09:07;;;;;;;1999.90;999.90;;;;;;;13.85;100.00;95623.16;5090270;28;20202;-70
2021/09/19 01:11:34;;;;;;;1999.90;999.90;;;;;;;13.83;100.00;95624.56;5090443;28;20242;-71
2021/09/19 01:14:02;;;;;;;1999.90;999.90;;;;;;;13.67;100.00;95612.00;5090146;28;20578;-72
2021/09/19 01:16:29;;;;;;;1999.90;999.90;;;;;;;13.73;100.00;95613.38;5091509;28;20195;-72
2021/09/19 01:18:58;;;;;;;1999.90;999.90;;;;;;;13.71;100.00;95612.91;5095587;28;20192;-73
2021/09/19 01:21:26;;;;;;;1999.90;999.90;;;;;;;13.69;100.00;95609.84;5092800;28;20192;-74
2021/09/19 01:23:59;;;;;;;1999.90;999.90;;;;;;;13.70;100.00;95606.13;5089830;28;20225;-72
2021/09/19 01:26:27;;;;;;;1999.90;999.90;;;;;;;13.60;100.00;95598.63;5089866;28;20247;-72
2021/09/19 01:28:55;;;;;;;1999.90;999.90;;;;;;;13.61;100.00;95594.94;5089859;28;20668;-71
2021/09/19 01:31:23;;;;;;;1999.90;999.90;;;;;;;13.50;100.00;95591.09;5089879;28;20314;-71
2021/09/19 01:33:50;;;;;;;1999.90;999.90;;;;;;;13.57;100.00;95585.44;5089583;28;20241;-71
2021/09/19 01:36:17;;;;;;;1999.90;999.90;;;;;;;13.58;100.00;95587.75;5090376;28;20196;-72
2021/09/19 01:38:45;;;;;;;1999.90;999.90;;;;;;;13.61;100.00;95592.34;5104090;28;20278;-71
2021/09/19 01:41:18;;;;;;;1999.90;999.90;;;;;;;13.60;100.00;95590.78;5110507;28;20201;-71
2021/09/19 01:43:45;;;;;;;1999.90;999.90;;;;;;;13.63;100.00;95589.41;5109925;28;20194;-72
2021/09/19 01:46:13;;;;;;;1999.90;999.90;;;;;;;13.57;100.00;95596.66;5109988;28;20195;-71
2021/09/19 01:48:43;;;;;;;1999.90;999.90;;;;;;;13.52;100.00;95588.97;5109924;28;20199;-71
2021/09/19 01:51:11;;;;;;;1999.90;999.90;;;;;;;13.56;100.00;95592.50;5110139;28;20222;-72
2021/09/19 01:53:40;;;;;;;1999.90;999.90;;;;;;;13.51;100.00;95589.28;5110153;28;20902;-72
2021/09/19 01:56:07;;;;;;;1999.90;999.90;;;;;;;13.58;100.00;95595.56;5110238;28;20196;-72
2021/09/19 01:58:43;;;;;;;1999.90;999.90;;;;;;;13.63;100.00;95599.88;5109999;28;20199;-72
2021/09/19 02:01:10;;;;;;;1999.90;999.90;;;;;;;13.57;100.00;95580.97;5106429;28;20687;-71
2021/09/19 02:03:38;;;;;;;1999.90;999.90;;;;;;;13.47;100.00;95581.28;5108049;28;20364;-72
2021/09/19 02:06:06;;;;;;;1999.90;999.90;;;;;;;13.47;100.00;95586.50;5105201;28;20207;-72
2021/09/19 02:08:36;;;;;;;1999.90;999.90;;;;;;;13.58;100.00;95590.34;5113205;28;20202;-71
2021/09/19 02:11:04;;;;;;;1999.90;999.90;;;;;;;13.57;100.00;95591.41;5114218;28;20211;-71
2021/09/19 02:13:31;;;;;;;1999.90;999.90;;;;;;;13.50;100.00;95585.88;5114801;27;20195;-70
2021/09/19 02:16:01;;;;;;;1999.90;999.90;;;;;;;13.51;100.00;95587.44;5114724;28;20229;-71
2021/09/19 02:18:28;;;;;;;1999.90;999.90;;;;;;;13.47;100.00;95573.47;5113683;28;20195;-71
2021/09/19 02:20:56;;;;;;;1999.90;999.90;;;;;;;13.37;100.00;95579.00;5113466;27;20191;-72
2021/09/19 02:23:23;;;;;;;1999.90;999.90;;;;;;;13.41;100.00;95582.53;5113726;28;20226;-72
2021/09/19 02:25:51;;;;;;;1999.90;999.90;;;;;;;13.54;100.00;95583.44;5113527;27;20733;-71
2021/09/19 02:28:18;;;;;;;1999.90;999.90;;;;;;;13.53;100.00;95595.72;5112661;28;20759;-71
2021/09/19 02:30:45;;;;;;;1999.90;999.90;;;;;;;13.69;100.00;95602.00;5113238;27;20233;-71
2021/09/19 02:33:14;;;;;;;1999.90;999.90;;;;;;;13.64;100.00;95599.56;5113668;28;20199;-71
2021/09/19 02:35:41;;;;;;;1999.90;999.90;;;;;;;13.59;100.00;95602.34;5113404;28;20683;-72
2021/09/19 02:38:08;;;;;;;1999.90;999.90;;;;;;;13.57;100.00;95595.88;5103981;28;20192;-72
2021/09/19 02:40:36;;;;;;;1999.90;999.90;;;;;;;13.59;100.00;95589.28;5092890;28;20196;-71
2021/09/19 02:43:04;;;;;;;1999.90;999.90;;;;;;;13.53;100.00;95589.75;5092813;28;20196;-71
2021/09/19 02:45:31;;;;;;;1999.90;999.90;;;;;;;13.61;100.00;95579.28;5093251;28;20296;-72
2021/09/19 02:47:58;;;;;;;1999.90;999.90;;;;;;;13.60;100.00;95575.13;5092903;28;20679;-71
2021/09/19 02:50:27;;;;;;;1999.90;999.90;;;;;;;13.60;100.00;95580.34;5092847;28;20219;-72
2021/09/19 02:52:55;;;;;;;1999.90;999.90;;;;;;;13.68;100.00;95579.59;5093130;28;20204;-71
2021/09/19 02:55:23;;;;;;;1999.90;999.90;;;;;;;13.72;100.00;95571.88;5092743;28;20679;-71
2021/09/19 02:57:50;;;;;;;1999.90;999.90;;;;;;;13.73;100.00;95570.81;5092467;28;20196;-71
2021/09/19 03:00:19;;;;;;;1999.90;999.90;;;;;;;13.77;100.00;95575.09;5092598;28;20199;-72
2021/09/19 03:02:48;;;;;;;1999.90;999.90;;;;;;;13.68;100.00;95592.66;5092151;28;20200;-71
2021/09/19 03:05:16;;;;;;;1999.90;999.90;;;;;;;13.72;100.00;95588.31;5092768;28;20196;-71
2021/09/19 03:07:45;;;;;;;1999.90;999.90;;;;;;;13.80;100.00;95579.69;5092490;28;20299;-72
2021/09/19 03:10:13;;;;;;;1999.90;999.90;;;;;;;13.79;100.00;95572.97;5092527;28;20231;-72
2021/09/19 03:12:41;;;;;;;1999.90;999.90;;;;;;;13.76;100.00;95578.78;5092424;28;20540;-72
2021/09/19 03:15:09;;;;;;;1999.90;999.90;;;;;;;13.69;100.00;95572.53;5092174;28;20196;-72
2021/09/19 03:17:37;;;;;;;1999.90;999.90;;;;;;;13.69;100.00;95578.50;5092249;28;20200;-71
2021/09/19 03:20:05;;;;;;;1999.90;999.90;;;;;;;13.75;100.00;95566.81;5092027;28;20716;-70
2021/09/19 03:22:33;;;;;;;1999.90;999.90;;;;;;;13.78;100.00;95570.66;5092200;28;20223;-73
2021/09/19 03:25:03;;;;;;;1999.90;999.90;;;;;;;13.84;100.00;95576.47;5091744;28;20314;-72
2021/09/19 03:27:30;;;;;;;1999.90;999.90;;;;;;;13.86;100.00;95588.13;5092061;28;20192;-72
2021/09/19 03:29:57;;;;;;;1999.90;999.90;;;;;;;13.93;100.00;95582.44;5091917;28;20206;-70
2021/09/19 03:32:25;;;;;;;1999.90;999.90;;;;;;;13.96;100.00;95573.97;5092217;28;20283;-71
2021/09/19 03:34:52;;;;;;;1999.90;999.90;;;;;;;14.09;100.00;95565.19;5092103;28;20222;-71
2021/09/19 03:37:19;;;;;;;1999.90;999.90;;;;;;;14.08;100.00;95558.41;5091811;28;20604;-72
2021/09/19 03:39:46;;;;;;;1999.90;999.90;;;;;;;14.06;100.00;95560.56;5091962;28;20196;-72
2021/09/19 03:42:15;;;;;;;1999.90;999.90;;;;;;;14.00;100.00;95572.25;5092132;28;20206;-72
2021/09/19 03:44:42;;;;;;;1999.90;999.90;;;;;;;13.96;100.00;95571.34;5091782;28;20196;-72
2021/09/19 03:47:09;;;;;;;1999.90;999.90;;;;;;;14.05;100.00;95574.72;5091972;28;20200;-73
2021/09/19 03:49:36;;;;;;;1999.90;999.90;;;;;;;14.07;100.00;95573.34;5091687;28;20202;-72
2021/09/19 03:52:04;;;;;;;1999.90;999.90;;;;;;;14.10;100.00;95572.69;5091838;28;20227;-73
2021/09/19 03:54:31;;;;;;;1999.90;999.90;;;;;;;14.21;100.00;95571.28;5091498;28;20208;-72
2021/09/19 03:56:58;;;;;;;1999.90;999.90;;;;;;;14.18;100.00;95569.31;5091775;28;20203;-71
2021/09/19 03:59:27;;;;;;;1999.90;999.90;;;;;;;14.21;100.00;95563.44;5091699;28;20735;-71
2021/09/19 04:01:54;;;;;;;1999.90;999.90;;;;;;;14.18;100.00;95569.31;5092001;28;20664;-72
2021/09/19 04:04:21;;;;;;;1999.90;999.90;;;;;;;14.08;100.00;95576.72;5091818;28;20853;-71
2021/09/19 04:06:48;;;;;;;1999.90;999.90;;;;;;;14.12;100.00;95575.78;5092641;28;20206;-71
2021/09/19 04:09:16;;;;;;;1999.90;999.90;;;;;;;14.16;100.00;95588.97;5096098;28;20199;-72
2021/09/19 04:11:43;;;;;;;1999.90;999.90;;;;;;;14.18;100.00;95586.81;5094264;28;20224;-72
2021/09/19 04:14:10;;;;;;;1999.90;999.90;;;;;;;14.19;100.00;95586.53;5091531;28;20675;-72
2021/09/19 04:16:39;;;;;;;1999.90;999.90;;;;;;;14.24;100.00;95572.50;5091398;28;20200;-72
2021/09/19 04:19:08;;;;;;;1999.90;999.90;;;;;;;14.29;100.00;95577.56;5091397;28;20200;-72
2021/09/19 04:21:35;;;;;;;1999.90;999.90;;;;;;;14.25;100.00;95575.88;5091526;28;20271;-72
2021/09/19 04:24:02;;;;;;;1999.90;999.90;;;;;;;14.17;100.00;95582.66;5090800;28;20286;-73
2021/09/19 04:26:29;;;;;;;1999.90;999.90;;;;;;;14.19;100.00;95588.38;5094490;28;20247;-72
2021/09/19 04:28:56;;;;;;;1999.90;999.90;;;;;;;14.23;100.00;95586.66;5090588;28;20680;-72
2021/09/19 04:31:23;;;;;;;1999.90;999.90;;;;;;;14.21;100.00;95583.56;5090272;28;20865;-72
2021/09/19 04:33:52;;;;;;;1999.90;999.90;;;;;;;14.15;100.00;95596.03;5090982;28;20196;-72
2021/09/19 04:36:19;;;;;;;1999.90;999.90;;;;;;;14.16;100.00;95596.81;5090479;28;20200;-73
2021/09/19 04:38:46;;;;;;;1999.90;999.90;;;;;;;14.23;100.00;95600.50;5105692;28;20195;-72
2021/09/19 04:41:14;;;;;;;1999.90;999.90;;;;;;;14.30;100.00;95605.22;5111136;28;20192;-73
2021/09/19 04:43:41;;;;;;;1999.90;999.90;;;;;;;14.29;100.00;95603.72;5110743;28;20286;-72
2021/09/19 04:46:08;;;;;;;1999.90;999.90;;;;;;;14.35;100.00;95599.81;5111005;28;20456;-70
2021/09/19 04:48:35;;;;;;;1999.90;999.90;;;;;;;14.40;100.00;95599.66;5111002;28;20197;-72
2021/09/19 04:51:04;;;;;;;1999.90;999.90;;;;;;;14.39;100.00;95590.31;5110299;28;20215;-71
2021/09/19 04:53:31;;;;;;;1999.90;999.90;;;;;;;14.39;100.00;95590.31;5110482;28;20234;-72
2021/09/19 04:55:58;;;;;;;1999.90;999.90;;;;;;;14.40;100.00;95583.97;5110893;28;20233;-71
2021/09/19 04:58:25;;;;;;;1999.90;999.90;;;;;;;14.39;100.00;95595.53;5110881;28;20195;-71
2021/09/19 05:00:52;;;;;;;1999.90;999.90;;;;;;;14.49;100.00;95595.19;5110900;28;20191;-72
2021/09/19 05:03:20;;;;;;;1999.90;999.90;;;;;;;14.61;100.00;95595.28;5110361;28;20191;-71
2021/09/19 05:05:47;;;;;;;1999.90;999.90;;;;;;;14.53;100.00;95590.88;5110239;28;20207;-72
2021/09/19 05:08:16;;;;;;;1999.90;999.90;;;;;;;14.53;100.00;95601.31;5110402;28;20207;-72
2021/09/19 05:10:43;;;;;;;1999.90;999.90;;;;;;;14.57;100.00;95601.44;5110425;28;20199;-71
2021/09/19 05:13:11;;;;;;;1999.90;999.90;;;;;;;14.59;100.00;95605.28;5110605;28;20221;-72
2021/09/19 05:15:38;;;;;;;1999.90;999.90;;;;;;;14.66;100.00;95602.16;5110551;28;20205;-71
2021/09/19 05:18:05;;;;;;;1999.90;999.90;;;;;;;14.73;100.00;95601.69;5110124;28;20285;-72
2021/09/19 05:20:32;;;;;;;1999.90;999.90;;;;;;;14.55;100.00;95608.84;5110611;28;20704;-71
2021/09/19 05:22:59;;;;;;;1999.90;999.90;;;;;;;14.50;100.00;95607.16;5110953;28;20195;-72
2021/09/19 05:25:28;;;;;;;1999.90;999.90;;;;;;;14.55;100.00;95604.38;5111946;28;20234;-72
2021/09/19 05:27:56;;;;;;;1999.90;999.90;;;;;;;14.67;100.00;95584.63;5113680;28;20199;-71
2021/09/19 05:30:23;;;;;;;1999.90;999.90;;;;;;;14.73;100.00;95581.53;5111678;28;20191;-71
2021/09/19 05:32:50;;;;;;;1999.90;999.90;;;;;;;14.83;100.00;95589.00;5110455;28;20229;-72
2021/09/19 05:35:17;;;;;;;1999.90;999.90;;;;;;;14.85;100.00;95575.59;5110095;28;20195;-71
2021/09/19 05:37:44;;;;;;;1999.90;999.90;;;;;;;14.78;100.00;95581.34;5110079;28;20199;-71
2021/09/19 05:40:14;;;;;;;1999.90;999.90;;;;;;;14.96;100.00;95571.50;5110127;28;20677;-71
2021/09/19 05:42:43;;;;;;;1999.90;999.90;;;;;;;15.18;100.00;95584.31;5112761;28;20615;-71
2021/09/19 05:45:11;;;;;;;1999.90;999.90;;;;;;;15.28;100.00;95586.53;5114192;28;20251;-71
2021/09/19 05:47:38;;;;;;;1999.90;999.90;;;;;;;15.41;100.00;95571.63;5114430;28;20187;-71
2021/09/19 05:50:07;;;;;;;1999.90;999.90;;;;;;;15.59;100.00;95577.53;5113979;28;20191;-72
2021/09/19 05:52:34;;;;;;;1999.90;999.90;;;;;;;15.78;100.00;95588.28;5114140;28;20241;-71
2021/09/19 05:55:02;;;;;;;1999.90;999.90;;;;;;;15.93;99.70;95579.81;5114217;28;20191;-72
2021/09/19 05:57:29;;;;;;;1999.90;999.90;;;;;;;16.10;99.24;95576.97;5114023;28;20745;-71
2021/09/19 05:59:59;;;;;;;1999.90;999.90;;;;;;;16.31;99.00;95577.66;5114186;28;20279;-71
2021/09/19 06:02:26;;;;;;;1999.90;999.90;;;;;;;16.41;98.25;95586.19;5113860;28;20191;-71
2021/09/19 06:04:53;;;;;;;1999.90;999.90;;;;;;;16.30;97.22;95589.25;5113871;28;20732;-72
2021/09/19 06:07:20;;;;;;;1999.90;999.90;;;;;;;16.21;97.75;95585.97;5114270;28;20254;-71
2021/09/19 06:09:47;;;;;;;1999.90;999.90;;;;;;;16.03;98.98;95582.00;5113864;28;20663;-71
2021/09/19 06:12:15;;;;;;;1999.90;999.90;;;;;;;16.01;99.63;95576.31;5114077;28;20322;-71
2021/09/19 06:14:42;;;;;;;1999.90;999.90;;;;;;;16.08;99.18;95573.94;5113899;28;20191;-72
2021/09/19 06:17:11;;;;;;;1999.90;999.90;;;;;;;16.36;100.00;95572.19;5113711;27;20675;-72
2021/09/19 06:19:38;;;;;;;1999.90;999.90;;;;;;;16.77;97.96;95576.50;5113823;28;20199;-71
2021/09/19 06:22:05;;;;;;;1999.90;999.90;;;;;;;16.92;94.56;95575.03;5113456;28;20199;-70
2021/09/19 06:24:33;;;;;;;1999.90;999.90;;;;;;;17.17;93.34;95586.25;5113505;28;20195;-71
2021/09/19 06:27:01;;;;;;;1999.90;999.90;;;;;;;17.42;94.33;95581.69;5073033;28;20295;-71
2021/09/19 06:29:28;;;;;;;1999.90;999.90;;;;;;;17.46;91.20;95582.53;5072873;28;20228;-71
2021/09/19 06:31:56;;;;;;;1999.90;999.90;;;;;;;17.46;91.21;95582.53;5072509;28;20216;-71
2021/09/19 06:34:25;;;;;;;1999.90;999.90;;;;;;;17.32;91.32;95579.53;5072887;28;20211;-72
2021/09/19 06:36:52;;;;;;;1999.90;999.90;;;;;;;17.28;91.39;95579.44;5072618;28;20216;-71
2021/09/19 06:39:20;;;;;;;1999.90;999.90;;;;;;;17.38;90.09;95586.09;5072967;28;20203;-72
2021/09/19 06:41:50;;;;;;;1999.90;999.90;;;;;;;17.45;90.60;95586.28;5074029;28;20227;-71
2021/09/19 06:44:18;;;;;;;1999.90;999.90;;;;;;;17.42;89.51;95589.56;5073526;28;20184;-71
2021/09/19 06:46:46;;;;;;;1999.90;999.90;;;;;;;17.41;90.68;95591.44;5073649;28;20253;-71
2021/09/19 06:49:13;;;;;;;1999.90;999.90;;;;;;;17.31;90.44;95585.88;5072354;28;20292;-70
2021/09/19 06:51:42;;;;;;;1999.90;999.90;;;;;;;17.37;88.57;95590.56;5072574;28;20230;-70
2021/09/19 06:54:09;;;;;;;1999.90;999.90;;;;;;;17.50;89.73;95591.28;5071500;28;20287;-71
2021/09/19 06:56:36;;;;;;;1999.90;999.90;;;;;;;17.37;90.15;95595.84;5073193;28;20240;-70
2021/09/19 06:59:03;;;;;;;1999.90;999.90;;;;;;;17.23;88.92;95604.06;5078544;28;20291;-71
2021/09/19 07:01:31;;;;;;;1999.90;999.90;;;;;;;17.25;89.77;95598.47;5076513;28;20279;-72
2021/09/19 07:03:58;;;;;;;1999.90;999.90;;;;;;;17.15;89.05;95609.44;5072541;28;20204;-72
2021/09/19 07:06:25;;;;;;;1999.90;999.90;;;;;;;17.31;89.75;95601.63;5072360;28;20207;-72
2021/09/19 07:08:54;;;;;;;1999.90;999.90;;;;;;;17.40;89.73;95605.66;5072130;28;20262;-72
2021/09/19 07:11:21;;;;;;;1999.90;999.90;;;;;;;17.42;88.92;95605.34;5072237;28;20235;-70
2021/09/19 07:13:48;;;;;;;1999.90;999.90;;;;;;;17.44;88.10;95605.75;5072359;28;20291;-71
2021/09/19 07:16:15;;;;;;;1999.90;999.90;;;;;;;17.39;88.44;95604.13;5072248;28;20197;-70
2021/09/19 07:18:43;;;;;;;1999.90;999.90;;;;;;;17.46;88.30;95598.31;5072488;28;20556;-72
2021/09/19 07:21:11;;;;;;;1999.90;999.90;;;;;;;17.37;88.80;95595.06;5071915;28;20204;-71
2021/09/19 07:23:38;;;;;;;1999.90;999.90;;;;;;;17.50;89.76;95593.91;5072006;28;20650;-71
2021/09/19 07:26:06;;;;;;;1999.90;999.90;;;;;;;17.56;86.73;95595.22;5097462;28;20241;-71
2021/09/19 07:28:34;;;;;;;1999.90;999.90;;;;;;;17.73;86.13;95594.97;5112177;28;20738;-71
2021/09/19 07:31:01;;;;;;;1999.90;999.90;;;;;;;17.91;85.21;95593.53;5112460;27;20607;-71
2021/09/19 07:33:29;;;;;;;1999.90;999.90;;;;;;;17.93;86.64;95586.06;5112440;28;20226;-72
2021/09/19 07:35:57;;;;;;;1999.90;999.90;;;;;;;18.16;84.91;95588.91;5112635;28;20195;-72
2021/09/19 07:38:25;;;;;;;1999.90;999.90;;;;;;;18.38;83.11;95593.56;5100627;28;20238;-71
2021/09/19 07:40:52;;;;;;;1999.90;999.90;;;;;;;18.46;82.95;95605.03;5092138;28;20200;-70
2021/09/19 07:43:21;;;;;;;1999.90;999.90;;;;;;;18.32;83.57;95607.34;5091896;28;20408;-71
2021/09/19 07:45:49;;;;;;;1999.90;999.90;;;;;;;18.52;83.05;95611.59;5091620;28;20199;-71
2021/09/19 07:48:17;;;;;;;1999.90;999.90;;;;;;;18.61;83.68;95614.81;5091568;28;20771;-72
2021/09/19 07:50:45;;;;;;;1999.90;999.90;;;;;;;18.55;81.20;95610.91;5091484;28;20298;-71
2021/09/19 07:53:13;;;;;;;1999.90;999.90;;;;;;;18.72;81.92;95621.09;5091683;28;20309;-71
2021/09/19 07:55:40;;;;;;;1999.90;999.90;;;;;;;18.74;79.77;95618.88;5091607;28;20200;-72
2021/09/19 07:58:07;;;;;;;1999.90;999.90;;;;;;;18.78;81.54;95621.63;5091386;28;20206;-70
2021/09/19 08:00:36;;;;;;;1999.90;999.90;;;;;;;18.75;80.52;95625.69;5091695;28;20749;-71
2021/09/19 08:03:03;;;;;;;1999.90;999.90;;;;;;;18.89;80.98;95617.31;5091916;28;20545;-70
2021/09/19 08:05:30;;;;;;;1999.90;999.90;;;;;;;18.99;78.12;95624.69;5090578;28;21000;-70
2021/09/19 08:07:57;;;;;;;1999.90;999.90;;;;;;;18.91;79.86;95629.06;5091868;28;20202;-70
2021/09/19 08:10:25;;;;;;;1999.90;999.90;;;;;;;18.93;81.98;95631.34;5091844;28;20203;-69
2021/09/19 08:12:52;;;;;;;1999.90;999.90;;;;;;;18.87;82.42;95630.84;5092390;28;20227;-71
2021/09/19 08:15:21;;;;;;;1999.90;999.90;;;;;;;18.89;82.88;95630.50;5091576;28;20675;-70
2021/09/19 08:17:50;;;;;;;1999.90;999.90;;;;;;;19.17;82.14;95633.78;5091200;28;20200;-70
2021/09/19 08:20:18;;;;;;;1999.90;999.90;;;;;;;19.29;81.70;95628.38;5090925;28;20199;-71
2021/09/19 08:22:46;;;;;;;1999.90;999.90;;;;;;;19.05;82.58;95628.59;5090792;28;20275;-72
2021/09/19 08:25:14;;;;;;;1999.90;999.90;;;;;;;19.49;79.37;95621.25;5090862;28;20236;-71
2021/09/19 08:27:42;;;;;;;1999.90;999.90;;;;;;;19.78;79.08;95625.97;5090796;28;20192;-71
2021/09/19 08:30:12;;;;;;;1999.90;999.90;;;;;;;19.88;78.40;95629.91;5091238;28;20196;-71
2021/09/19 08:32:40;;;;;;;1999.90;999.90;;;;;;;19.75;77.99;95629.31;5094004;28;20219;-72
2021/09/19 08:35:11;;;;;;;1999.90;999.90;;;;;;;19.58;78.60;95629.72;5090519;28;20196;-72
2021/09/19 08:37:38;;;;;;;1999.90;999.90;;;;;;;19.49;78.61;95631.03;5095888;28;20184;-71
2021/09/19 08:40:09;;;;;;;1999.90;999.90;;;;;;;19.28;79.19;95624.19;5111254;28;20286;-70
2021/09/19 08:42:37;;;;;;;1999.90;999.90;;;;;;;19.42;80.19;95629.00;5110947;28;20184;-71
2021/09/19 08:45:05;;;;;;;1999.90;999.90;;;;;;;19.40;79.68;95620.69;5111277;28;20634;-71
2021/09/19 08:47:35;;;;;;;1999.90;999.90;;;;;;;19.66;80.38;95625.38;5110756;28;20198;-71
2021/09/19 08:50:03;;;;;;;1999.90;999.90;;;;;;;19.81;79.31;95621.13;5111083;28;20218;-70
2021/09/19 08:52:31;;;;;;;1999.90;999.90;;;;;;;19.93;79.30;95626.22;5111054;28;20249;-71
2021/09/19 08:54:58;;;;;;;1999.90;999.90;;;;;;;19.77;80.80;95624.44;5110970;28;20202;-71
2021/09/19 08:57:25;;;;;;;1999.90;999.90;;;;;;;19.74;81.59;95621.75;5111368;28;20195;-71
2021/09/19 08:59:55;;;;;;;1999.90;999.90;;;;;;;19.71;80.25;95625.84;5110689;28;20195;-72
2021/09/19 09:02:22;;;;;;;1999.90;999.90;;;;;;;19.92;80.04;95632.63;5111550;28;20219;-73
2021/09/19 09:04:56;;;;;;;1999.90;999.90;;;;;;;20.22;79.87;95627.53;5110746;28;20658;-71
2021/09/19 09:07:25;;;;;;;1999.90;999.90;;;;;;;20.44;79.03;95626.78;5111048;28;20187;-70
2021/09/19 09:09:55;;;;;;;1999.90;999.90;;;;;;;20.62;80.11;95623.28;5110466;28;20207;-71
2021/09/19 09:12:23;;;;;;;1999.90;999.90;;;;;;;20.72;76.25;95623.84;5111067;28;20222;-71
2021/09/19 09:14:54;;;;;;;1999.90;999.90;;;;;;;20.76;77.12;95617.50;5110943;28;20670;-71
2021/09/19 09:17:23;;;;;;;1999.90;999.90;;;;;;;20.59;77.34;95615.31;5110379;28;20183;-71
2021/09/19 09:19:52;;;;;;;1999.90;999.90;;;;;;;20.66;78.91;95610.16;5110410;28;20199;-71
2021/09/19 09:22:24;;;;;;;1999.90;999.90;;;;;;;20.70;79.68;95612.84;5110684;28;20217;-70
2021/09/19 09:25:08;;;;;;;1999.90;999.90;;;;;;;20.74;80.40;95603.09;5110578;28;20791;-72
2021/09/19 09:27:42;;;;;;;1999.90;999.90;;;;;;;21.00;76.61;95605.75;5110905;28;20590;-70
2021/09/19 09:30:13;;;;;;;1999.90;999.90;;;;;;;20.94;76.66;95586.03;5110299;28;20184;-71
2021/09/19 09:32:59;;;;;;;1999.90;999.90;;;;;;;20.88;75.34;95592.72;5110681;28;20203;-72
2021/09/19 09:35:31;;;;;;;1999.90;999.90;;;;;;;20.78;78.01;95593.34;5110278;28;20188;-71
2021/09/19 09:37:59;;;;;;;1999.90;999.90;;;;;;;20.73;78.07;95583.84;5110266;28;20183;-71
2021/09/19 09:40:29;;;;;;;1999.90;999.90;;;;;;;20.92;76.49;95578.44;5110317;28;20202;-71
2021/09/19 09:43:08;;;;;;;1999.90;999.90;;;;;;;21.07;77.53;95582.03;5110203;28;20187;-71
2021/09/19 09:45:40;;;;;;;1999.90;999.90;;;;;;;21.14;77.67;95584.81;5110423;28;20182;-71
2021/09/19 09:48:26;;;;;;;1999.90;999.90;;;;;;;21.32;74.49;95577.84;5110772;28;20187;-70
2021/09/19 09:50:54;;;;;;;1999.90;999.90;;;;;;;21.19;76.24;95587.16;5113897;28;20682;-71
2021/09/19 09:53:23;;;;;;;1999.90;999.90;;;;;;;21.11;78.23;95579.47;5111956;28;20908;-71
2021/09/19 09:55:52;;;;;;;1999.90;999.90;;;;;;;21.34;77.67;95578.28;5109969;28;20197;-71
2021/09/19 09:58:21;;;;;;;1999.90;999.90;;;;;;;21.30;77.08;95574.84;5109889;28;20233;-72
2021/09/19 10:00:50;;;;;;;1999.90;999.90;;;;;;;21.28;77.59;95561.19;5110077;28;20248;-72
2021/09/19 10:03:18;;;;;;;1999.90;999.90;;;;;;;21.47;75.62;95563.69;5109980;28;20195;-71
2021/09/19 10:05:46;;;;;;;1999.90;999.90;;;;;;;21.54;74.43;95560.38;5110152;28;20905;-71
2021/09/19 10:08:13;;;;;;;1999.90;999.90;;;;;;;21.50;74.58;95558.81;5111231;28;20675;-69
2021/09/19 10:10:43;;;;;;;1999.90;999.90;;;;;;;21.70;74.66;95550.34;5111400;28;20566;-70
2021/09/19 10:13:14;;;;;;;1999.90;999.90;;;;;;;21.54;76.44;95549.03;5109949;28;20317;-70
2021/09/19 10:15:42;;;;;;;1999.90;999.90;;;;;;;21.70;76.71;95542.41;5110065;28;20280;-70
2021/09/19 10:18:10;;;;;;;1999.90;999.90;;;;;;;22.05;74.45;95543.88;5110000;28;20630;-70
2021/09/19 10:20:40;;;;;;;1999.90;999.90;;;;;;;22.02;76.19;95539.34;5109847;28;20191;-69
2021/09/19 10:23:13;;;;;;;1999.90;999.90;;;;;;;22.48;75.27;95539.69;5110234;28;20191;-70
2021/09/19 10:25:48;;;;;;;1999.90;999.90;;;;;;;22.59;73.27;95543.16;5109750;28;20257;-70
2021/09/19 10:28:26;;;;;;;1999.90;999.90;;;;;;;23.00;71.82;95531.31;5109829;28;20189;-70
2021/09/19 10:31:18;;;;;;;1999.90;999.90;;;;;;;23.39;70.48;95525.41;5113996;28;20550;-70
2021/09/19 10:33:50;;;;;;;1999.90;999.90;;;;;;;23.21;72.88;95524.59;5112175;28;20295;-72
2021/09/19 10:36:41;;;;;;;1999.90;999.90;;;;;;;23.12;71.73;95517.72;5113572;27;20188;-70
2021/09/19 10:39:23;;;;;;;1999.90;999.90;;;;;;;22.78;72.14;95529.69;5110731;28;20195;-71
2021/09/19 10:42:30;;;;;;;1999.90;999.90;;;;;;;22.84;73.42;95517.59;5113289;28;20633;-70
2021/09/19 10:45:08;;;;;;;1999.90;999.90;;;;;;;23.03;73.59;95522.63;5113867;28;20268;-70
2021/09/19 10:47:43;;;;;;;1999.90;999.90;;;;;;;22.96;72.90;95529.78;5113782;28;20183;-71
2021/09/19 10:50:36;;;;;;;1999.90;999.90;;;;;;;23.06;70.87;95529.09;5113346;28;20633;-68
2021/09/19 10:53:05;;;;;;;1999.90;999.90;;;;;;;23.20;71.82;95517.78;5113298;28;20250;-71
2021/09/19 10:55:35;;;;;;;1999.90;999.90;;;;;;;23.23;72.45;95509.81;5113568;28;20559;-70